Time;durP1;ratioP1;P1;durP2;ratioP2;P2;SDS_P1;SDS_P2;PMS_P1;PMS_P2;Temp;Humidity;BMP_temperature;BMP_pressure;BME280_temperature;BME280_humidity;BME280_pressure;Samples;Min_cycle;Max_cycle;Signal;HPM_P1;HPM_P2
2022/06/23 00:00:39;;;;;;;19.63;17.98;;;20.60;75.20;;;;;;4976027;28;20029;-78
2022/06/23 00:03:05;;;;;;;19.65;17.70;;;20.60;75.30;;;;;;5006413;28;20742;-78
2022/06/23 00:05:39;;;;;;;20.52;18.40;;;20.60;75.50;;;;;;4991030;28;20049;-78
2022/06/23 00:08:08;;;;;;;20.67;19.05;;;20.50;75.50;;;;;;5006949;28;20037;-77
2022/06/23 00:10:38;;;;;;;20.30;18.05;;;20.40;75.50;;;;;;4993162;28;20467;-78
2022/06/23 00:13:15;;;;;;;20.60;18.95;;;20.50;75.70;;;;;;4990168;28;20042;-78
2022/06/23 00:15:42;;;;;;;21.13;18.98;;;20.40;75.60;;;;;;4988474;28;20043;-78
2022/06/23 00:18:25;;;;;;;22.10;19.13;;;20.40;75.50;;;;;;4981892;28;20037;-78
2022/06/23 00:20:57;;;;;;;22.50;20.55;;;20.30;75.60;;;;;;4989948;28;20030;-78
2022/06/23 00:23:28;;;;;;;20.90;19.30;;;20.30;75.70;;;;;;5008006;28;20463;-78
2022/06/23 00:26:07;;;;;;;22.23;19.92;;;20.30;76.00;;;;;;5009914;28;20033;-78
2022/06/23 00:28:50;;;;;;;20.58;18.88;;;20.30;76.10;;;;;;4993050;28;20406;-78
2022/06/23 00:31:31;;;;;;;20.88;19.05;;;20.30;76.00;;;;;;4972885;28;20034;-78
2022/06/23 00:33:58;;;;;;;;;;;20.20;76.00;;;;;;5004622;28;20037;-78
2022/06/23 00:36:32;;;;;;;20.90;18.83;;;20.20;75.80;;;;;;5001423;28;20417;-78
2022/06/23 00:38:58;;;;;;;19.88;17.95;;;20.20;76.30;;;;;;5007743;28;20045;-78
2022/06/23 00:41:28;;;;;;;21.30;19.30;;;20.20;76.70;;;;;;5007777;28;20037;-78
2022/06/23 00:43:56;;;;;;;21.77;19.63;;;20.20;76.70;;;;;;4993075;28;20037;-78
2022/06/23 00:46:42;;;;;;;20.67;18.65;;;20.30;76.80;;;;;;4991183;28;20269;-78
2022/06/23 00:49:26;;;;;;;20.88;18.92;;;20.30;76.60;;;;;;4989696;28;20041;-78
2022/06/23 00:51:58;;;;;;;21.80;19.80;;;20.30;76.70;;;;;;4994295;28;20030;-78
2022/06/23 00:54:30;;;;;;;21.17;19.33;;;20.30;77.20;;;;;;4993584;28;20029;-77
2022/06/23 00:57:04;;;;;;;20.10;18.40;;;20.30;77.10;;;;;;4994104;28;20034;-78
2022/06/23 00:59:52;;;;;;;20.02;18.40;;;20.30;77.00;;;;;;5011000;28;20033;-78
2022/06/23 01:02:27;;;;;;;20.98;18.92;;;20.30;76.90;;;;;;4992589;28;20045;-78
2022/06/23 01:05:02;;;;;;;20.17;18.15;;;20.30;77.00;;;;;;4995366;28;20048;-77
2022/06/23 01:08:09;;;;;;;21.35;19.08;;;20.30;77.10;;;;;;5009260;28;20029;-78
2022/06/23 01:10:43;;;;;;;20.27;18.48;;;20.20;77.20;;;;;;4971951;28;20039;-78
2022/06/23 01:13:26;;;;;;;21.45;19.48;;;20.20;76.90;;;;;;4952579;28;20411;-78
2022/06/23 01:16:15;;;;;;;20.83;18.77;;;20.20;77.20;;;;;;4938097;28;20066;-78
2022/06/23 01:18:44;;;;;;;20.77;18.55;;;20.10;77.50;;;;;;4952359;28;20038;-78
2022/06/23 01:21:29;;;;;;;22.45;19.45;;;20.10;77.40;;;;;;4954464;28;20038;-78
2022/06/23 01:23:58;;;;;;;22.38;20.17;;;20.10;77.40;;;;;;4953056;28;20054;-78
2022/06/23 01:26:36;;;;;;;20.60;18.70;;;20.10;77.30;;;;;;4970406;28;20043;-78
2022/06/23 01:29:20;;;;;;;21.27;19.40;;;20.20;77.10;;;;;;4980771;28;20054;-78
2022/06/23 01:31:47;;;;;;;20.88;18.88;;;20.20;77.10;;;;;;4954612;28;20043;-78
2022/06/23 01:34:19;;;;;;;20.98;19.10;;;20.10;77.30;;;;;;4952454;28;20038;-78
2022/06/23 01:36:49;;;;;;;20.83;18.85;;;20.20;77.40;;;;;;4968499;28;20034;-78
2022/06/23 01:39:25;;;;;;;21.23;19.05;;;20.20;77.30;;;;;;4952991;28;20031;-78
2022/06/23 01:42:00;;;;;;;22.02;18.75;;;20.20;77.30;;;;;;4982940;28;20040;-78
2022/06/23 01:44:51;;;;;;;22.88;18.25;;;20.20;77.40;;;;;;5009732;28;20026;-78
2022/06/23 01:47:35;;;;;;;21.35;18.85;;;20.20;77.50;;;;;;5009454;28;20164;-78
2022/06/23 01:50:48;;;;;;;21.40;19.27;;;20.10;77.50;;;;;;5009452;28;20026;-77
2022/06/23 01:53:17;;;;;;;20.52;18.40;;;20.20;77.30;;;;;;4998155;28;20521;-78
2022/06/23 01:56:15;;;;;;;21.80;19.35;;;20.10;77.40;;;;;;5012968;28;20510;-77
2022/06/23 01:59:08;;;;;;;22.27;19.92;;;20.20;77.70;;;;;;4984504;28;20054;-78
2022/06/23 02:01:45;;;;;;;21.88;19.85;;;20.20;77.50;;;;;;4995074;28;20041;-78
2022/06/23 02:04:16;;;;;;;22.73;20.40;;;20.20;77.50;;;;;;5008638;28;20049;-78
2022/06/23 02:06:50;;;;;;;22.17;20.10;;;20.20;77.60;;;;;;4992317;28;20017;-78
2022/06/23 02:09:42;;;;;;;21.45;19.65;;;20.20;77.60;;;;;;4992072;28;20022;-78
2022/06/23 02:12:22;;;;;;;23.15;20.83;;;20.20;77.40;;;;;;4994623;28;20026;-78
2022/06/23 02:14:51;;;;;;;24.23;21.93;;;20.20;77.30;;;;;;4992325;28;20042;-77
2022/06/23 02:17:36;;;;;;;22.05;19.90;;;20.30;77.20;;;;;;5009099;28;20042;-78
2022/06/23 02:20:24;;;;;;;24.10;21.80;;;20.20;77.10;;;;;;5008912;28;20026;-78
2022/06/23 02:22:50;;;;;;;22.90;20.83;;;20.20;77.40;;;;;;4967360;28;20045;-78
2022/06/23 02:25:25;;;;;;;20.77;18.67;;;20.20;77.50;;;;;;4994314;28;20084;-77
2022/06/23 02:28:04;;;;;;;22.98;20.67;;;20.10;78.10;;;;;;4998235;28;20050;-78
2022/06/23 02:30:40;;;;;;;22.05;19.88;;;20.10;78.00;;;;;;5009872;28;20038;-78
2022/06/23 02:33:30;;;;;;;22.15;18.85;;;20.00;78.20;;;;;;4991351;28;20033;-78
2022/06/23 02:36:20;;;;;;;21.75;19.80;;;20.00;78.10;;;;;;5007852;28;20034;-79
2022/06/23 02:38:58;;;;;;;22.52;19.15;;;20.10;78.10;;;;;;4996100;28;20045;-78
2022/06/23 02:42:00;;;;;;;21.13;19.23;;;20.10;77.70;;;;;;5010325;28;20037;-78
2022/06/23 02:45:04;;;;;;;22.40;20.17;;;20.20;77.70;;;;;;4963237;28;20514;-77
2022/06/23 02:47:45;;;;;;;21.08;18.95;;;20.20;77.70;;;;;;4965888;28;20036;-78
2022/06/23 02:50:11;;;;;;;20.98;19.02;;;20.20;77.80;;;;;;4966331;28;20134;-78
2022/06/23 02:52:49;;;;;;;21.58;19.45;;;20.20;77.80;;;;;;4955568;28;20035;-78
2022/06/23 02:55:33;;;;;;;22.10;19.92;;;20.20;77.90;;;;;;4933776;28;20131;-78
2022/06/23 02:58:07;;;;;;;20.73;18.92;;;20.20;78.00;;;;;;4958686;28;20039;-78
2022/06/23 03:00:46;;;;;;;21.73;19.20;;;20.20;77.70;;;;;;4950241;28;20881;-77
2022/06/23 03:03:21;;;;;;;21.30;19.25;;;20.30;77.70;;;;;;4940222;28;20038;-78
2022/06/23 03:05:49;;;;;;;21.60;19.00;;;20.30;77.70;;;;;;4952388;28;20042;-78
2022/06/23 03:08:18;;;;;;;22.80;20.50;;;20.30;77.70;;;;;;4936941;29;20046;-78
2022/06/23 03:11:00;;;;;;;20.52;17.55;;;20.30;77.70;;;;;;4955757;28;20643;-78
2022/06/23 03:13:48;;;;;;;21.98;19.77;;;20.30;77.70;;;;;;4949882;28;20048;-78
2022/06/23 03:16:25;;;;;;;22.38;19.77;;;20.30;77.60;;;;;;4934407;28;20047;-78
2022/06/23 03:18:55;;;;;;;22.17;20.00;;;20.30;77.80;;;;;;4976747;28;20034;-78
2022/06/23 03:21:30;;;;;;;22.35;20.10;;;20.20;77.80;;;;;;4992348;28;20034;-78
2022/06/23 03:24:04;;;;;;;23.52;21.20;;;20.20;77.90;;;;;;5009953;28;20561;-78
2022/06/23 03:26:39;;;;;;;22.33;20.13;;;20.20;77.70;;;;;;5008445;28;20068;-78
2022/06/23 03:29:34;;;;;;;22.65;20.45;;;20.20;77.60;;;;;;5005404;28;20037;-77
2022/06/23 03:32:24;;;;;;;21.35;19.40;;;20.20;77.70;;;;;;4993157;28;20042;-78
2022/06/23 03:35:01;;;;;;;22.63;20.30;;;20.20;77.80;;;;;;4997185;28;20038;-78
2022/06/23 03:37:36;;;;;;;21.65;19.35;;;20.10;78.00;;;;;;5009246;28;20038;-78
2022/06/23 03:43:32;;;;;;;24.20;19.73;;;20.10;77.90;;;;;;5012771;28;20053;-78
2022/06/23 03:46:23;;;;;;;22.20;20.00;;;20.20;77.80;;;;;;5007870;28;20025;-78
2022/06/23 03:48:57;;;;;;;28.67;21.90;;;20.20;77.80;;;;;;5009142;28;20029;-77
2022/06/23 03:51:35;;;;;;;24.83;21.60;;;20.20;77.70;;;;;;4990611;28;20463;-78
2022/06/23 03:54:11;;;;;;;24.58;21.98;;;20.10;77.90;;;;;;4973155;28;20026;-78
2022/06/23 03:56:45;;;;;;;24.00;21.63;;;20.10;77.80;;;;;;4977701;28;20482;-78
2022/06/23 03:59:23;;;;;;;25.08;21.65;;;20.10;77.70;;;;;;5008440;28;20049;-78
2022/06/23 04:02:12;;;;;;;25.88;21.63;;;20.10;77.80;;;;;;4992453;28;20041;-78
2022/06/23 04:04:51;;;;;;;23.70;21.33;;;20.10;78.60;;;;;;4993814;28;20037;-78
2022/06/23 04:07:30;;;;;;;24.05;21.48;;;20.10;77.80;;;;;;5009198;28;20045;-78
2022/06/23 04:09:59;;;;;;;23.20;20.92;;;20.10;78.10;;;;;;5008956;28;20041;-79
2022/06/23 04:12:25;;;;;;;24.70;20.48;;;20.10;78.00;;;;;;4989932;28;20033;-78
2022/06/23 04:15:17;;;;;;;25.67;21.20;;;20.10;78.10;;;;;;4989677;28;20038;-78
2022/06/23 04:17:44;;;;;;;24.85;20.50;;;20.10;78.20;;;;;;4992978;28;20045;-78
2022/06/23 04:20:14;;;;;;;25.73;23.00;;;20.00;78.30;;;;;;5008595;28;20030;-78
2022/06/23 04:22:43;;;;;;;26.85;21.98;;;20.00;78.30;;;;;;5010280;28;20034;-78
2022/06/23 04:25:19;;;;;;;26.42;23.65;;;20.00;78.10;;;;;;4989884;28;20018;-78
2022/06/23 04:27:48;;;;;;;25.83;23.23;;;20.00;78.00;;;;;;4976033;28;20391;-78
2022/06/23 04:30:24;;;;;;;25.40;22.90;;;20.00;77.80;;;;;;4969580;28;20407;-78
2022/06/23 04:32:50;;;;;;;27.58;23.35;;;20.00;77.80;;;;;;4994673;28;20026;-78
2022/06/23 04:35:17;;;;;;;24.92;22.42;;;20.00;77.80;;;;;;5012401;28;20030;-77
2022/06/23 04:38:11;;;;;;;26.45;23.85;;;20.00;77.70;;;;;;4993247;28;20423;-78
2022/06/23 04:40:57;;;;;;;25.85;23.05;;;20.00;77.60;;;;;;5014481;28;20025;-78
2022/06/23 04:43:31;;;;;;;25.70;23.05;;;20.00;77.50;;;;;;4993710;28;20038;-78
2022/06/23 04:46:29;;;;;;;25.10;22.60;;;19.90;77.50;;;;;;4992955;28;20037;-78
2022/06/23 04:48:59;;;;;;;25.73;22.65;;;19.90;77.70;;;;;;4996087;28;20026;-78
2022/06/23 04:51:33;;;;;;;25.17;22.48;;;19.90;77.80;;;;;;4993883;28;20034;-77
2022/06/23 04:54:09;;;;;;;25.65;22.92;;;19.80;78.10;;;;;;4993449;28;20026;-78
2022/06/23 04:56:46;;;;;;;28.55;22.02;;;19.80;78.10;;;;;;4995443;28;20045;-78
2022/06/23 04:59:30;;;;;;;25.45;22.83;;;19.80;78.20;;;;;;5011955;28;20037;-78
2022/06/23 05:01:57;;;;;;;26.00;22.80;;;19.70;78.30;;;;;;4995421;28;20486;-78
2022/06/23 05:04:27;;;;;;;24.75;22.30;;;19.70;78.50;;;;;;4993406;28;20022;-78
2022/06/23 05:06:55;;;;;;;25.95;23.33;;;19.80;78.40;;;;;;4979192;28;20035;-78
2022/06/23 05:09:41;;;;;;;26.92;24.20;;;19.80;78.10;;;;;;4993116;28;20026;-78
2022/06/23 05:12:17;;;;;;;26.17;22.65;;;19.70;78.20;;;;;;4978300;28;20037;-78
2022/06/23 05:14:52;;;;;;;26.25;23.52;;;19.70;78.40;;;;;;5011926;28;20045;-78
2022/06/23 05:17:21;;;;;;;24.77;22.27;;;19.80;78.20;;;;;;5011049;28;20042;-78
2022/06/23 05:19:47;;;;;;;24.17;21.85;;;19.80;78.10;;;;;;5010910;28;20459;-78
2022/06/23 05:22:27;;;;;;;25.00;22.15;;;19.80;78.00;;;;;;4979295;28;20029;-78
2022/06/23 05:24:53;;;;;;;23.08;21.00;;;19.80;78.20;;;;;;5010649;28;20042;-78
2022/06/23 05:27:25;;;;;;;26.52;24.33;;;19.90;78.80;;;;;;4992458;28;20422;-78
2022/06/23 05:30:18;;;;;;;19.88;16.52;;;19.90;79.00;;;;;;4992971;28;20038;-78
2022/06/23 05:33:13;;;;;;;17.23;15.45;;;20.10;78.60;;;;;;4980361;28;20049;-78
2022/06/23 05:35:42;;;;;;;19.50;17.52;;;20.20;78.60;;;;;;5010476;28;20033;-78
2022/06/23 05:38:31;;;;;;;20.15;18.38;;;20.40;77.50;;;;;;5011441;28;20041;-78
2022/06/23 05:41:03;;;;;;;18.83;17.00;;;20.40;77.40;;;;;;5011739;28;20033;-78
2022/06/23 05:43:31;;;;;;;17.52;15.68;;;20.60;77.40;;;;;;4978729;28;20044;-78
2022/06/23 05:45:59;;;;;;;17.27;15.30;;;20.70;76.90;;;;;;5010842;28;20479;-78
2022/06/23 05:48:30;;;;;;;18.70;15.40;;;20.80;75.80;;;;;;4992379;28;20041;-78
2022/06/23 05:51:02;;;;;;;20.80;18.50;;;20.90;76.00;;;;;;4992779;28;20026;-78
2022/06/23 05:53:31;;;;;;;21.55;19.48;;;21.10;75.40;;;;;;4993770;28;20044;-77
2022/06/23 05:56:04;;;;;;;23.13;21.08;;;21.20;74.50;;;;;;5008370;28;20050;-77
2022/06/23 05:58:36;;;;;;;23.35;21.10;;;21.40;74.00;;;;;;5010294;28;20061;-77
2022/06/23 06:01:12;;;;;;;24.20;22.40;;;21.40;73.70;;;;;;4990352;28;20034;-77
2022/06/23 06:03:56;;;;;;;26.23;24.38;;;21.50;73.80;;;;;;4988880;28;20030;-77
2022/06/23 06:06:22;;;;;;;25.10;23.20;;;21.70;73.30;;;;;;4992434;28;20034;-77
2022/06/23 06:12:01;;;;;;;26.13;23.65;;;21.90;71.90;;;;;;5002341;28;20041;-77
2022/06/23 06:14:30;;;;;;;26.52;24.50;;;22.00;71.80;;;;;;5009546;28;20077;-77
2022/06/23 06:16:57;;;;;;;24.33;22.35;;;22.10;71.50;;;;;;5010903;28;20053;-77
2022/06/23 06:19:23;;;;;;;26.85;24.73;;;22.30;70.90;;;;;;4978097;28;20046;-77
2022/06/23 06:21:52;;;;;;;23.42;21.75;;;22.40;70.70;;;;;;4978070;28;20117;-77
2022/06/23 06:24:28;;;;;;;22.45;20.55;;;22.60;70.30;;;;;;4994188;28;20029;-77
2022/06/23 06:26:54;;;;;;;27.55;25.38;;;22.70;69.90;;;;;;4992467;28;20037;-77
2022/06/23 06:29:22;;;;;;;25.88;23.77;;;22.90;69.60;;;;;;5009422;28;20034;-77
2022/06/23 06:32:12;;;;;;;24.90;22.67;;;22.90;69.40;;;;;;5008784;28;20044;-77
2022/06/23 06:34:40;;;;;;;31.70;29.50;;;23.10;68.60;;;;;;4971022;28;20054;-78
2022/06/23 06:37:07;;;;;;;32.55;30.17;;;23.10;68.50;;;;;;4951675;28;20145;-78
2022/06/23 06:39:36;;;;;;;28.35;26.38;;;23.20;67.40;;;;;;4951123;28;20041;-78
2022/06/23 06:42:14;;;;;;;28.13;26.05;;;23.30;66.50;;;;;;4951795;28;20037;-77
2022/06/23 06:44:42;;;;;;;27.92;25.73;;;22.90;66.90;;;;;;4938252;28;20104;-78
2022/06/23 06:47:14;;;;;;;23.02;21.30;;;22.90;67.80;;;;;;4953850;28;20482;-77
2022/06/23 06:49:40;;;;;;;20.88;19.23;;;22.90;68.10;;;;;;4973866;28;20031;-78
2022/06/23 06:52:07;;;;;;;21.92;19.88;;;22.90;68.00;;;;;;4950994;28;20525;-77
2022/06/23 06:54:52;;;;;;;21.75;19.80;;;23.00;67.70;;;;;;4935199;28;20045;-77
2022/06/23 06:57:51;;;;;;;30.67;28.33;;;23.00;67.40;;;;;;4950780;28;20050;-77
2022/06/23 07:00:25;;;;;;;24.60;22.40;;;22.90;67.30;;;;;;4943756;28;20042;-77
2022/06/23 07:02:59;;;;;;;24.13;22.30;;;22.70;67.30;;;;;;4951738;28;20038;-77
2022/06/23 07:05:30;;;;;;;26.15;24.25;;;22.60;68.70;;;;;;4953094;28;20054;-77
2022/06/23 07:08:05;;;;;;;;;;;22.70;69.10;;;;;;4970558;28;20515;-77
2022/06/23 07:10:39;;;;;;;20.77;18.75;;;22.90;68.60;;;;;;4969088;28;20270;-77
2022/06/23 07:13:09;;;;;;;19.13;17.33;;;23.00;67.80;;;;;;4991129;28;20045;-78
2022/06/23 07:15:41;;;;;;;21.92;20.02;;;23.00;66.50;;;;;;4990408;28;20494;-77
2022/06/23 07:18:18;;;;;;;23.02;21.15;;;23.00;67.00;;;;;;4991301;28;20030;-77
2022/06/23 07:20:56;;;;;;;20.30;18.75;;;23.00;66.90;;;;;;5006899;28;20026;-77
2022/06/23 07:23:29;;;;;;;28.17;25.92;;;23.00;67.40;;;;;;5008254;28;20041;-77
2022/06/23 07:26:10;;;;;;;30.15;28.10;;;23.10;65.90;;;;;;4974286;28;20031;-77
2022/06/23 07:28:43;;;;;;;36.08;33.67;;;23.20;66.00;;;;;;4992278;28;20072;-77
2022/06/23 07:31:15;;;;;;;38.95;36.38;;;23.30;66.20;;;;;;4992823;28;20034;-77
2022/06/23 07:34:05;;;;;;;42.90;40.35;;;23.40;65.10;;;;;;4990249;28;20030;-77
2022/06/23 07:36:36;;;;;;;40.28;37.83;;;23.60;64.90;;;;;;4990495;28;20729;-77
2022/06/23 07:39:09;;;;;;;42.53;39.78;;;23.60;64.60;;;;;;4990956;28;20026;-76
2022/06/23 07:41:38;;;;;;;34.75;32.78;;;23.80;64.20;;;;;;4992833;28;20034;-77
2022/06/23 07:44:14;;;;;;;35.15;32.88;;;24.10;62.70;;;;;;5007745;28;20033;-77
2022/06/23 07:46:40;;;;;;;32.63;30.73;;;24.30;62.90;;;;;;5008743;28;20046;-78
2022/06/23 07:49:06;;;;;;;33.78;31.77;;;24.30;62.00;;;;;;4990254;28;20030;-77
2022/06/23 07:51:33;;;;;;;36.08;33.85;;;24.40;60.40;;;;;;5007238;28;20110;-77
2022/06/23 07:53:59;;;;;;;30.65;28.73;;;24.50;60.30;;;;;;4990637;28;20030;-77
2022/06/23 07:56:29;;;;;;;30.10;27.92;;;24.50;59.50;;;;;;5008049;28;20034;-77
2022/06/23 07:58:56;;;;;;;29.60;27.80;;;24.50;60.00;;;;;;5009768;28;20033;-77
2022/06/23 08:01:29;;;;;;;30.33;28.58;;;24.60;60.50;;;;;;4988590;28;20041;-77
2022/06/23 08:04:33;;;;;;;32.20;30.30;;;24.90;59.60;;;;;;4990105;28;20022;-77
2022/06/23 08:07:01;;;;;;;31.92;29.88;;;25.10;58.50;;;;;;5009234;28;20041;-77
2022/06/23 08:09:56;;;;;;;35.13;33.08;;;25.20;58.00;;;;;;4990026;28;20049;-78
2022/06/23 08:18:40;;;;;;;37.38;35.00;;;25.50;55.80;;;;;;5011635;28;20072;-77
2022/06/23 08:21:13;;;;;;;39.10;36.78;;;25.50;57.00;;;;;;5008457;28;20040;-77
2022/06/23 08:23:52;;;;;;;43.20;40.90;;;25.60;56.30;;;;;;5009158;28;20029;-77
2022/06/23 08:26:19;;;;;;;49.17;46.55;;;25.70;55.80;;;;;;5008157;28;20030;-78
2022/06/23 08:28:45;;;;;;;46.70;44.05;;;25.80;56.10;;;;;;4991468;28;20025;-77
2022/06/23 08:31:11;;;;;;;51.75;48.75;;;25.90;55.50;;;;;;4989270;28;20029;-77
2022/06/23 08:33:37;;;;;;;52.97;49.92;;;26.00;54.70;;;;;;4989549;28;20025;-77
2022/06/23 08:36:07;;;;;;;56.70;53.35;;;26.20;55.20;;;;;;5009303;28;20034;-78
2022/06/23 08:38:51;;;;;;;49.90;47.20;;;26.30;54.50;;;;;;4992367;28;20038;-78
2022/06/23 08:41:40;;;;;;;62.65;59.40;;;26.50;54.10;;;;;;4988447;28;20034;-78
2022/06/23 08:44:12;;;;;;;63.40;60.03;;;26.70;53.90;;;;;;5005967;28;20022;-78
2022/06/23 08:46:46;;;;;;;61.33;58.08;;;26.80;54.00;;;;;;5004655;28;20045;-78
2022/06/23 08:49:33;;;;;;;62.00;58.85;;;27.00;53.00;;;;;;5005064;28;20026;-78
2022/06/23 08:52:38;;;;;;;56.38;53.30;;;27.10;52.80;;;;;;5008915;28;20098;-78
2022/06/23 08:55:04;;;;;;;54.13;51.35;;;27.00;51.80;;;;;;4965989;28;20047;-78
2022/06/23 08:57:55;;;;;;;53.28;50.45;;;27.00;52.20;;;;;;4965749;28;20057;-78
2022/06/23 09:00:31;;;;;;;52.83;49.88;;;27.10;51.60;;;;;;4952053;28;20031;-78
2022/06/23 09:03:23;;;;;;;56.33;53.33;;;27.20;51.50;;;;;;4934130;28;20344;-78
2022/06/23 09:06:02;;;;;;;53.65;50.92;;;27.20;51.90;;;;;;4922184;28;20064;-78
2022/06/23 09:08:33;;;;;;;52.53;49.75;;;27.40;50.80;;;;;;4951197;28;20044;-77
2022/06/23 09:11:09;;;;;;;50.40;47.78;;;27.50;51.50;;;;;;4968448;28;20038;-78
2022/06/23 09:14:05;;;;;;;46.65;44.15;;;27.00;50.40;;;;;;4970862;28;20059;-78
2022/06/23 09:16:34;;;;;;;42.80;40.40;;;26.90;51.30;;;;;;4970442;28;20046;-78
2022/06/23 09:19:39;;;;;;;42.90;40.53;;;27.10;51.70;;;;;;4966320;28;20058;-77
2022/06/23 09:22:26;;;;;;;41.80;39.08;;;27.20;51.60;;;;;;4908296;29;20036;-78
2022/06/23 09:25:02;;;;;;;52.67;49.63;;;27.30;51.50;;;;;;4895354;29;20036;-78
2022/06/23 09:27:54;;;;;;;50.42;47.72;;;27.20;51.70;;;;;;4896659;29;20202;-78
2022/06/23 09:30:48;;;;;;;41.45;38.95;;;27.20;51.30;;;;;;4907716;28;20508;-78
2022/06/23 09:33:43;;;;;;;39.45;37.35;;;27.00;52.10;;;;;;4933172;29;20039;-78
2022/06/23 09:36:30;;;;;;;40.08;37.83;;;27.20;51.50;;;;;;4951212;29;20524;-78
2022/06/23 09:38:56;;;;;;;39.10;37.10;;;27.30;51.50;;;;;;4951070;29;20078;-78
2022/06/23 09:41:31;;;;;;;41.88;39.75;;;27.30;51.00;;;;;;4951049;29;20031;-78
2022/06/23 09:44:13;;;;;;;38.08;35.70;;;27.10;50.10;;;;;;4949545;29;20043;-78
2022/06/23 09:47:01;;;;;;;37.00;35.05;;;26.90;51.20;;;;;;4946994;28;20412;-77
2022/06/23 09:49:41;;;;;;;42.08;39.47;;;27.00;51.20;;;;;;4946084;29;20036;-78
2022/06/23 09:52:33;;;;;;;39.10;37.10;;;27.10;51.40;;;;;;4944719;29;20031;-78
2022/06/23 09:55:53;;;;;;;44.05;41.60;;;27.10;50.60;;;;;;4943571;29;20047;-78
2022/06/23 09:59:03;;;;;;;42.65;40.30;;;27.30;50.20;;;;;;4968507;28;20381;-78
2022/06/23 10:01:44;;;;;;;43.05;40.67;;;27.50;49.30;;;;;;4925785;28;20056;-78
2022/06/23 10:04:13;;;;;;;44.28;42.03;;;27.50;48.60;;;;;;4911348;29;20481;-78
2022/06/23 10:07:19;;;;;;;45.97;43.70;;;27.70;49.10;;;;;;4929934;29;20060;-78
2022/06/23 10:09:56;;;;;;;44.42;42.03;;;27.90;48.80;;;;;;4929176;29;20040;-78
2022/06/23 10:12:39;;;;;;;48.22;45.80;;;27.90;49.40;;;;;;4929182;29;20050;-78
2022/06/23 10:15:34;;;;;;;51.80;49.03;;;27.70;49.40;;;;;;4928978;29;20028;-78
2022/06/23 10:18:20;;;;;;;43.53;41.22;;;27.80;49.10;;;;;;4929078;29;20604;-78
2022/06/23 10:21:11;;;;;;;49.92;46.80;;;27.80;49.60;;;;;;4929345;29;20035;-78
2022/06/23 10:23:46;;;;;;;44.38;42.00;;;27.90;47.70;;;;;;4929070;29;20032;-78
2022/06/23 10:26:30;;;;;;;47.65;45.17;;;28.00;48.10;;;;;;4931431;29;20059;-78
2022/06/23 10:29:33;;;;;;;58.45;55.65;;;28.20;46.30;;;;;;4901723;29;20382;-78
2022/06/23 10:32:11;;;;;;;1999.90;999.90;;;28.40;46.80;;;;;;4955297;28;20030;-78
2022/06/23 10:35:04;;;;;;;63.75;60.40;;;28.60;46.80;;;;;;5012241;28;20034;-78
2022/06/23 10:37:49;;;;;;;1999.90;999.90;;;28.70;46.40;;;;;;5010633;28;20498;-78
2022/06/23 10:40:44;;;;;;;1999.90;999.90;;;28.90;45.20;;;;;;4991352;28;20026;-78
2022/06/23 10:43:42;;;;;;;1999.90;999.90;;;28.90;44.50;;;;;;4993540;28;20303;-78
2022/06/23 10:46:21;;;;;;;80.80;76.80;;;29.00;44.00;;;;;;5009685;28;20478;-78
2022/06/23 10:49:13;;;;;;;76.57;72.82;;;29.00;45.00;;;;;;4992534;28;20025;-78
2022/06/23 10:52:05;;;;;;;75.55;71.80;;;29.10;45.40;;;;;;4991083;28;20030;-78
2022/06/23 10:54:50;;;;;;;1999.90;999.90;;;29.20;46.30;;;;;;5009856;28;20057;-78
2022/06/23 10:57:28;;;;;;;560.53;307.55;;;29.40;45.70;;;;;;5010511;28;20041;-78
2022/06/23 11:00:12;;;;;;;77.68;73.78;;;29.60;44.90;;;;;;5010247;28;20033;-78
2022/06/23 11:03:16;;;;;;;86.55;82.15;;;29.40;44.60;;;;;;4994341;28;20034;-78
2022/06/23 11:05:50;;;;;;;1999.90;999.90;;;29.50;46.00;;;;;;5010089;28;20018;-78
2022/06/23 11:08:32;;;;;;;1999.90;999.90;;;29.70;44.70;;;;;;5009628;28;20036;-78
2022/06/23 11:11:29;;;;;;;1999.90;999.90;;;29.80;43.40;;;;;;5011318;28;20026;-78
2022/06/23 11:13:55;;;;;;;1999.90;999.90;;;29.70;42.90;;;;;;5010593;28;20053;-79
2022/06/23 11:16:34;;;;;;;1032.90;531.25;;;29.80;43.00;;;;;;5009349;28;20038;-78
2022/06/23 11:19:34;;;;;;;1999.90;999.90;;;29.80;43.20;;;;;;4976140;28;20077;-78
2022/06/23 11:22:16;;;;;;;1999.90;999.90;;;29.80;43.40;;;;;;4989507;28;20026;-78
2022/06/23 11:25:01;;;;;;;1999.90;999.90;;;29.80;42.00;;;;;;5009558;28;20030;-78
2022/06/23 11:27:40;;;;;;;75.88;72.07;;;29.70;41.80;;;;;;5009700;28;20029;-78
2022/06/23 11:30:43;;;;;;;1999.90;999.90;;;29.40;43.60;;;;;;4990211;28;20399;-78
2022/06/23 11:33:24;;;;;;;59.90;56.92;;;29.50;44.00;;;;;;4942460;28;20353;-78
2022/06/23 11:36:38;;;;;;;72.40;68.85;;;29.20;42.60;;;;;;4969099;28;20039;-78
2022/06/23 11:39:25;;;;;;;53.72;51.05;;;29.30;43.40;;;;;;4908173;29;20041;-78
2022/06/23 11:42:00;;;;;;;1999.90;999.90;;;29.40;42.70;;;;;;4878825;29;20145;-78
2022/06/23 11:44:38;;;;;;;1999.90;999.90;;;29.60;43.10;;;;;;4910583;29;20140;-78
2022/06/23 11:47:04;;;;;;;1999.90;999.90;;;29.90;43.40;;;;;;4893111;29;20040;-78
2022/06/23 11:49:30;;;;;;;1999.90;999.90;;;30.00;42.70;;;;;;4895405;29;20044;-78
2022/06/23 11:52:05;;;;;;;1999.90;999.90;;;30.20;42.10;;;;;;4907481;29;20039;-78
2022/06/23 11:54:52;;;;;;;1999.90;999.90;;;30.30;42.00;;;;;;4897041;29;20048;-78
2022/06/23 11:57:29;;;;;;;1999.90;999.90;;;30.40;41.60;;;;;;4881963;29;20048;-78
2022/06/23 12:00:08;;;;;;;1999.90;999.90;;;30.40;40.80;;;;;;4895973;29;20044;-78
2022/06/23 12:02:59;;;;;;;1999.90;999.90;;;30.30;41.90;;;;;;4880175;29;20398;-78
2022/06/23 12:05:51;;;;;;;;;;;30.40;42.40;;;;;;4897716;29;20048;-78
2022/06/23 12:08:55;;;;;;;1999.90;999.90;;;30.50;42.30;;;;;;4943115;29;19914;-78
2022/06/23 12:11:21;;;;;;;1999.90;999.90;;;30.50;42.10;;;;;;4872372;29;20062;-78
2022/06/23 12:13:47;;;;;;;1999.90;999.90;;;30.50;40.80;;;;;;4872962;29;20510;-78
2022/06/23 12:16:13;;;;;;;1999.90;999.90;;;30.10;41.30;;;;;;4899440;29;20505;-78
2022/06/23 12:19:01;;;;;;;1999.90;999.90;;;30.20;41.60;;;;;;4895620;29;20048;-78
2022/06/23 12:21:37;;;;;;;1999.90;999.90;;;30.40;41.70;;;;;;4895476;29;20032;-78
2022/06/23 12:24:30;;;;;;;1999.90;999.90;;;30.60;40.90;;;;;;4911685;29;20122;-78
2022/06/23 12:27:25;;;;;;;1999.90;999.90;;;30.80;41.20;;;;;;4898613;29;20055;-79
2022/06/23 12:30:06;;;;;;;1999.90;999.90;;;30.80;41.10;;;;;;4892171;29;20056;-78
2022/06/23 12:32:59;;;;;;;1999.90;999.90;;;30.80;41.00;;;;;;4894672;29;20083;-78
2022/06/23 12:35:37;;;;;;;1999.90;999.90;;;30.80;40.10;;;;;;4930416;29;20040;-78
2022/06/23 12:38:17;;;;;;;1999.90;999.90;;;30.90;39.60;;;;;;4931045;28;20382;-78
2022/06/23 12:40:52;;;;;;;1999.90;999.90;;;31.10;39.20;;;;;;4914611;29;20042;-78
2022/06/23 12:43:35;;;;;;;1999.90;999.90;;;31.10;37.70;;;;;;4895798;29;20032;-78
2022/06/23 12:46:23;;;;;;;1999.90;999.90;;;31.00;36.40;;;;;;4950154;28;20135;-78
2022/06/23 12:49:30;;;;;;;1999.90;999.90;;;30.50;36.90;;;;;;4985432;28;20045;-78
2022/06/23 12:52:11;;;;;;;1999.90;999.90;;;30.40;38.40;;;;;;4980903;28;20901;-78
2022/06/23 12:54:50;;;;;;;1999.90;999.90;;;30.40;39.30;;;;;;4976379;28;20042;-78
2022/06/23 12:58:03;;;;;;;1999.90;999.90;;;30.50;40.10;;;;;;4929456;28;20483;-78
2022/06/23 13:00:38;;;;;;;1999.90;999.90;;;30.70;37.70;;;;;;4970857;28;20050;-78
2022/06/23 13:03:25;;;;;;;532.75;281.15;;;30.70;39.20;;;;;;4975975;28;20562;-78
2022/06/23 13:06:01;;;;;;;549.63;297.17;;;30.30;40.40;;;;;;4960957;28;20538;-78
2022/06/23 13:08:47;;;;;;;1999.90;999.90;;;30.50;40.50;;;;;;4941685;28;20038;-78
2022/06/23 13:11:26;;;;;;;1999.90;999.90;;;30.40;38.10;;;;;;4984034;28;20039;-78
2022/06/23 13:13:57;;;;;;;1999.90;999.90;;;30.40;39.90;;;;;;4957458;28;20047;-78
2022/06/23 13:16:27;;;;;;;1999.90;999.90;;;30.60;38.20;;;;;;4955200;28;20079;-78
2022/06/23 13:19:05;;;;;;;1999.90;999.90;;;30.80;38.60;;;;;;4969243;28;20061;-78
2022/06/23 13:21:33;;;;;;;1999.90;999.90;;;30.90;38.70;;;;;;4974160;28;20039;-78
2022/06/23 13:24:08;;;;;;;1999.90;999.90;;;31.00;37.80;;;;;;4956823;28;20046;-78
2022/06/23 13:26:38;;;;;;;1999.90;999.90;;;30.80;37.50;;;;;;4967967;28;20042;-78
2022/06/23 13:29:12;;;;;;;1999.90;999.90;;;30.90;38.20;;;;;;5008740;28;20034;-78
2022/06/23 13:32:15;;;;;;;1999.90;999.90;;;30.90;37.80;;;;;;5011885;28;20038;-78
2022/06/23 13:35:03;;;;;;;1999.90;999.90;;;30.80;38.10;;;;;;4996024;28;20502;-78